Brochet, Canada
Current Conditions -  °F | °C
As of 1:19 AM on Saturday 20 Dec 2014 (Local Time) from CYYL Reporting Station
Haze Haze  
Wind Chill:   Ceiling: 300
Heat Index: 14°   Visibility: 2mi
Dew Point: 12°   Wind: 5mph
Humidity: 93%   Direction: 190°S
Pressure: 29.94"   Gusts: NA
Location:  57.88°N, 101.67°W
Report Text: CYYL 200719Z AUTO 19004KT 160V240 2SM BR OVC003 M10/M11 A2994 RMK SLP169
Loading
Personal Weather Stations






























Interactive Weather Map New forecast layout! Learn more

10-Day Weather Forecast

Advertisements
Track Severe Weather on mobile